sensor_id;sensor_type;location;lat;lon;timestamp;P1;durP1;ratioP1;P2;durP2;ratioP2
37288;SDS011;23174;49.462;11.000;2023-11-21T00:01:27;0.30;;;0.25;;
37288;SDS011;23174;49.462;11.000;2023-11-21T00:03:28;3.42;;;0.40;;
37288;SDS011;23174;49.462;11.000;2023-11-21T00:05:28;2.90;;;0.80;;
37288;SDS011;23174;49.462;11.000;2023-11-21T00:07:29;1.05;;;0.60;;
37288;SDS011;23174;49.462;11.000;2023-11-21T00:09:29;0.55;;;0.50;;
37288;SDS011;23174;49.462;11.000;2023-11-21T00:11:30;1.38;;;0.80;;
37288;SDS011;23174;49.462;11.000;2023-11-21T00:13:31;1.05;;;0.55;;
37288;SDS011;23174;49.462;11.000;2023-11-21T00:15:32;1.48;;;1.00;;
37288;SDS011;23174;49.462;11.000;2023-11-21T00:17:32;0.93;;;0.70;;
37288;SDS011;23174;49.462;11.000;2023-11-21T00:19:33;0.95;;;0.70;;
37288;SDS011;23174;49.462;11.000;2023-11-21T00:21:34;6.72;;;1.05;;
37288;SDS011;23174;49.462;11.000;2023-11-21T00:23:35;1.88;;;1.02;;
37288;SDS011;23174;49.462;11.000;2023-11-21T00:25:35;2.30;;;0.70;;
37288;SDS011;23174;49.462;11.000;2023-11-21T00:27:36;0.95;;;0.80;;
37288;SDS011;23174;49.462;11.000;2023-11-21T00:29:36;1.38;;;1.00;;
37288;SDS011;23174;49.462;11.000;2023-11-21T00:31:38;2.13;;;1.10;;
37288;SDS011;23174;49.462;11.000;2023-11-21T00:33:38;3.70;;;0.90;;
37288;SDS011;23174;49.462;11.000;2023-11-21T00:35:39;2.85;;;0.88;;
37288;SDS011;23174;49.462;11.000;2023-11-21T00:37:39;1.35;;;0.95;;
37288;SDS011;23174;49.462;11.000;2023-11-21T00:39:40;0.88;;;0.60;;
37288;SDS011;23174;49.462;11.000;2023-11-21T00:41:41;2.28;;;0.85;;
37288;SDS011;23174;49.462;11.000;2023-11-21T00:43:42;3.45;;;0.80;;
37288;SDS011;23174;49.462;11.000;2023-11-21T00:45:42;2.33;;;0.90;;
37288;SDS011;23174;49.462;11.000;2023-11-21T00:47:43;1.13;;;0.80;;
37288;SDS011;23174;49.462;11.000;2023-11-21T00:49:43;2.13;;;0.80;;
37288;SDS011;23174;49.462;11.000;2023-11-21T00:51:44;1.60;;;0.90;;
37288;SDS011;23174;49.462;11.000;2023-11-21T00:53:44;2.00;;;0.70;;
37288;SDS011;23174;49.462;11.000;2023-11-21T00:55:45;2.33;;;0.82;;
37288;SDS011;23174;49.462;11.000;2023-11-21T00:57:46;2.08;;;1.05;;
37288;SDS011;23174;49.462;11.000;2023-11-21T00:59:46;2.38;;;1.00;;
37288;SDS011;23174;49.462;11.000;2023-11-21T01:01:47;2.13;;;1.10;;
37288;SDS011;23174;49.462;11.000;2023-11-21T01:03:48;1.38;;;0.90;;
37288;SDS011;23174;49.462;11.000;2023-11-21T01:05:49;1.08;;;0.95;;
37288;SDS011;23174;49.462;11.000;2023-11-21T01:07:50;1.45;;;1.10;;
37288;SDS011;23174;49.462;11.000;2023-11-21T01:09:50;1.00;;;0.80;;
37288;SDS011;23174;49.462;11.000;2023-11-21T01:11:51;1.50;;;1.00;;
37288;SDS011;23174;49.462;11.000;2023-11-21T01:13:52;1.38;;;1.02;;
37288;SDS011;23174;49.462;11.000;2023-11-21T01:15:53;1.33;;;0.90;;
37288;SDS011;23174;49.462;11.000;2023-11-21T01:17:54;2.72;;;1.27;;
37288;SDS011;23174;49.462;11.000;2023-11-21T01:19:54;1.15;;;1.02;;
37288;SDS011;23174;49.462;11.000;2023-11-21T01:21:56;1.42;;;1.23;;
37288;SDS011;23174;49.462;11.000;2023-11-21T01:23:57;1.67;;;1.20;;
37288;SDS011;23174;49.462;11.000;2023-11-21T01:25:58;3.95;;;1.38;;
37288;SDS011;23174;49.462;11.000;2023-11-21T01:27:58;1.95;;;1.33;;
37288;SDS011;23174;49.462;11.000;2023-11-21T01:29:59;2.10;;;1.00;;
37288;SDS011;23174;49.462;11.000;2023-11-21T01:32:00;1.77;;;0.80;;
37288;SDS011;23174;49.462;11.000;2023-11-21T01:34:00;3.70;;;1.23;;
37288;SDS011;23174;49.462;11.000;2023-11-21T01:36:01;19.23;;;1.27;;
37288;SDS011;23174;49.462;11.000;2023-11-21T01:38:01;1.42;;;0.80;;
37288;SDS011;23174;49.462;11.000;2023-11-21T01:40:02;1.90;;;0.90;;
37288;SDS011;23174;49.462;11.000;2023-11-21T01:42:07;2.28;;;0.90;;
37288;SDS011;23174;49.462;11.000;2023-11-21T01:44:08;1.40;;;0.93;;
37288;SDS011;23174;49.462;11.000;2023-11-21T01:46:09;1.27;;;0.90;;
37288;SDS011;23174;49.462;11.000;2023-11-21T01:48:10;1.15;;;1.00;;
37288;SDS011;23174;49.462;11.000;2023-11-21T01:50:14;2.83;;;0.88;;
37288;SDS011;23174;49.462;11.000;2023-11-21T01:52:17;1.50;;;1.00;;
37288;SDS011;23174;49.462;11.000;2023-11-21T01:54:18;3.10;;;1.08;;
37288;SDS011;23174;49.462;11.000;2023-11-21T01:56:20;1.40;;;0.90;;
37288;SDS011;23174;49.462;11.000;2023-11-21T01:58:21;1.85;;;0.95;;
37288;SDS011;23174;49.462;11.000;2023-11-21T02:00:22;2.75;;;0.82;;
37288;SDS011;23174;49.462;11.000;2023-11-21T02:02:23;1.60;;;0.80;;
37288;SDS011;23174;49.462;11.000;2023-11-21T02:04:24;1.23;;;0.82;;
37288;SDS011;23174;49.462;11.000;2023-11-21T02:06:25;1.85;;;0.90;;
37288;SDS011;23174;49.462;11.000;2023-11-21T02:08:31;1.13;;;0.88;;
37288;SDS011;23174;49.462;11.000;2023-11-21T02:10:31;1.70;;;1.10;;
37288;SDS011;23174;49.462;11.000;2023-11-21T02:12:32;2.10;;;1.02;;
37288;SDS011;23174;49.462;11.000;2023-11-21T02:14:32;1.42;;;1.08;;
37288;SDS011;23174;49.462;11.000;2023-11-21T02:16:33;1.73;;;0.80;;
37288;SDS011;23174;49.462;11.000;2023-11-21T02:18:33;1.00;;;0.70;;
37288;SDS011;23174;49.462;11.000;2023-11-21T02:20:34;5.35;;;1.30;;
37288;SDS011;23174;49.462;11.000;2023-11-21T02:22:37;1.02;;;0.93;;
37288;SDS011;23174;49.462;11.000;2023-11-21T02:24:41;3.65;;;1.08;;
37288;SDS011;23174;49.462;11.000;2023-11-21T02:26:42;1.80;;;0.95;;
37288;SDS011;23174;49.462;11.000;2023-11-21T02:28:42;1.92;;;0.90;;
37288;SDS011;23174;49.462;11.000;2023-11-21T02:30:43;1.65;;;0.88;;
37288;SDS011;23174;49.462;11.000;2023-11-21T02:32:43;0.85;;;0.65;;
37288;SDS011;23174;49.462;11.000;2023-11-21T02:34:44;1.75;;;1.05;;
37288;SDS011;23174;49.462;11.000;2023-11-21T02:36:45;2.10;;;0.90;;
37288;SDS011;23174;49.462;11.000;2023-11-21T02:38:45;1.63;;;0.80;;
37288;SDS011;23174;49.462;11.000;2023-11-21T02:40:46;1.55;;;0.80;;
37288;SDS011;23174;49.462;11.000;2023-11-21T02:42:47;2.20;;;0.70;;
37288;SDS011;23174;49.462;11.000;2023-11-21T02:44:48;1.48;;;0.82;;
37288;SDS011;23174;49.462;11.000;2023-11-21T02:46:48;1.23;;;0.90;;
37288;SDS011;23174;49.462;11.000;2023-11-21T02:48:49;2.08;;;0.98;;
37288;SDS011;23174;49.462;11.000;2023-11-21T02:50:51;2.95;;;0.95;;
37288;SDS011;23174;49.462;11.000;2023-11-21T02:52:53;1.67;;;0.75;;
37288;SDS011;23174;49.462;11.000;2023-11-21T02:54:54;1.42;;;0.95;;
37288;SDS011;23174;49.462;11.000;2023-11-21T02:56:55;1.40;;;0.70;;
37288;SDS011;23174;49.462;11.000;2023-11-21T02:58:55;2.17;;;0.90;;
37288;SDS011;23174;49.462;11.000;2023-11-21T03:00:56;1.65;;;1.10;;
37288;SDS011;23174;49.462;11.000;2023-11-21T03:02:57;1.83;;;0.68;;
37288;SDS011;23174;49.462;11.000;2023-11-21T03:04:58;1.58;;;0.77;;
37288;SDS011;23174;49.462;11.000;2023-11-21T03:06:58;1.52;;;0.90;;
37288;SDS011;23174;49.462;11.000;2023-11-21T03:08:59;3.55;;;0.98;;
37288;SDS011;23174;49.462;11.000;2023-11-21T03:10:59;2.20;;;1.05;;
37288;SDS011;23174;49.462;11.000;2023-11-21T03:13:00;0.93;;;0.80;;
37288;SDS011;23174;49.462;11.000;2023-11-21T03:15:00;1.42;;;0.90;;
37288;SDS011;23174;49.462;11.000;2023-11-21T03:17:02;1.27;;;1.02;;
37288;SDS011;23174;49.462;11.000;2023-11-21T03:19:05;1.02;;;0.93;;
37288;SDS011;23174;49.462;11.000;2023-11-21T03:21:05;3.08;;;0.90;;
37288;SDS011;23174;49.462;11.000;2023-11-21T03:23:08;1.02;;;0.90;;
37288;SDS011;23174;49.462;11.000;2023-11-21T03:25:09;5.28;;;1.13;;
37288;SDS011;23174;49.462;11.000;2023-11-21T03:27:12;1.45;;;0.90;;
37288;SDS011;23174;49.462;11.000;2023-11-21T03:29:13;1.27;;;0.70;;
37288;SDS011;23174;49.462;11.000;2023-11-21T03:31:14;1.67;;;1.25;;
37288;SDS011;23174;49.462;11.000;2023-11-21T03:33:17;0.63;;;0.63;;
37288;SDS011;23174;49.462;11.000;2023-11-21T03:35:17;0.70;;;0.65;;
37288;SDS011;23174;49.462;11.000;2023-11-21T03:37:20;2.00;;;0.80;;
37288;SDS011;23174;49.462;11.000;2023-11-21T03:39:21;1.23;;;0.90;;
37288;SDS011;23174;49.462;11.000;2023-11-21T03:41:22;1.25;;;1.00;;
37288;SDS011;23174;49.462;11.000;2023-11-21T03:43:22;2.95;;;1.10;;
37288;SDS011;23174;49.462;11.000;2023-11-21T03:45:24;1.65;;;1.15;;
37288;SDS011;23174;49.462;11.000;2023-11-21T03:47:26;1.25;;;1.15;;
37288;SDS011;23174;49.462;11.000;2023-11-21T03:49:27;1.83;;;0.80;;
37288;SDS011;23174;49.462;11.000;2023-11-21T03:51:29;4.22;;;0.90;;
37288;SDS011;23174;49.462;11.000;2023-11-21T03:53:29;2.38;;;1.02;;
37288;SDS011;23174;49.462;11.000;2023-11-21T03:55:30;4.20;;;1.20;;
37288;SDS011;23174;49.462;11.000;2023-11-21T03:57:31;2.40;;;1.30;;
37288;SDS011;23174;49.462;11.000;2023-11-21T03:59:32;1.27;;;0.88;;
37288;SDS011;23174;49.462;11.000;2023-11-21T04:01:32;1.65;;;0.95;;
37288;SDS011;23174;49.462;11.000;2023-11-21T04:03:33;2.15;;;0.90;;
37288;SDS011;23174;49.462;11.000;2023-11-21T04:05:33;2.33;;;0.90;;
37288;SDS011;23174;49.462;11.000;2023-11-21T04:07:34;1.10;;;1.00;;
37288;SDS011;23174;49.462;11.000;2023-11-21T04:09:34;2.30;;;0.95;;
37288;SDS011;23174;49.462;11.000;2023-11-21T04:11:36;3.05;;;1.10;;
37288;SDS011;23174;49.462;11.000;2023-11-21T04:13:36;3.40;;;1.40;;
37288;SDS011;23174;49.462;11.000;2023-11-21T04:15:40;2.25;;;1.10;;
37288;SDS011;23174;49.462;11.000;2023-11-21T04:17:41;2.10;;;1.13;;
37288;SDS011;23174;49.462;11.000;2023-11-21T04:19:41;1.83;;;1.13;;
37288;SDS011;23174;49.462;11.000;2023-11-21T04:21:42;2.50;;;1.30;;
37288;SDS011;23174;49.462;11.000;2023-11-21T04:23:43;2.25;;;1.15;;
37288;SDS011;23174;49.462;11.000;2023-11-21T04:25:43;1.48;;;1.00;;
37288;SDS011;23174;49.462;11.000;2023-11-21T04:27:44;4.07;;;1.20;;
37288;SDS011;23174;49.462;11.000;2023-11-21T04:29:45;4.68;;;1.48;;
37288;SDS011;23174;49.462;11.000;2023-11-21T04:31:46;2.67;;;1.13;;
37288;SDS011;23174;49.462;11.000;2023-11-21T04:33:48;1.00;;;0.90;;
37288;SDS011;23174;49.462;11.000;2023-11-21T04:35:49;1.20;;;0.63;;
37288;SDS011;23174;49.462;11.000;2023-11-21T04:37:49;3.08;;;1.25;;
37288;SDS011;23174;49.462;11.000;2023-11-21T04:39:51;5.45;;;1.13;;
37288;SDS011;23174;49.462;11.000;2023-11-21T04:41:51;2.30;;;1.23;;
37288;SDS011;23174;49.462;11.000;2023-11-21T04:43:52;1.52;;;0.73;;
37288;SDS011;23174;49.462;11.000;2023-11-21T04:45:52;1.63;;;0.82;;
37288;SDS011;23174;49.462;11.000;2023-11-21T04:47:54;2.92;;;1.23;;
37288;SDS011;23174;49.462;11.000;2023-11-21T04:49:55;1.42;;;0.90;;
37288;SDS011;23174;49.462;11.000;2023-11-21T04:51:55;1.83;;;0.90;;
37288;SDS011;23174;49.462;11.000;2023-11-21T04:53:56;1.45;;;0.90;;
37288;SDS011;23174;49.462;11.000;2023-11-21T04:55:56;2.05;;;1.20;;
37288;SDS011;23174;49.462;11.000;2023-11-21T04:57:57;2.70;;;0.98;;
37288;SDS011;23174;49.462;11.000;2023-11-21T04:59:57;2.90;;;0.95;;
37288;SDS011;23174;49.462;11.000;2023-11-21T05:01:58;1.73;;;1.25;;
37288;SDS011;23174;49.462;11.000;2023-11-21T05:04:00;4.00;;;1.25;;
37288;SDS011;23174;49.462;11.000;2023-11-21T05:06:00;3.08;;;1.13;;
37288;SDS011;23174;49.462;11.000;2023-11-21T05:08:02;2.22;;;1.00;;
37288;SDS011;23174;49.462;11.000;2023-11-21T05:10:04;2.53;;;1.13;;
37288;SDS011;23174;49.462;11.000;2023-11-21T05:12:14;1.25;;;1.00;;
37288;SDS011;23174;49.462;11.000;2023-11-21T05:14:14;1.00;;;0.80;;
37288;SDS011;23174;49.462;11.000;2023-11-21T05:16:15;0.80;;;0.75;;
37288;SDS011;23174;49.462;11.000;2023-11-21T05:18:15;1.23;;;0.80;;
37288;SDS011;23174;49.462;11.000;2023-11-21T05:20:16;1.85;;;1.20;;
37288;SDS011;23174;49.462;11.000;2023-11-21T05:22:21;2.83;;;1.23;;
37288;SDS011;23174;49.462;11.000;2023-11-21T05:24:21;2.10;;;1.00;;
37288;SDS011;23174;49.462;11.000;2023-11-21T05:26:22;2.40;;;1.13;;
37288;SDS011;23174;49.462;11.000;2023-11-21T05:28:22;2.15;;;0.95;;
37288;SDS011;23174;49.462;11.000;2023-11-21T05:30:23;1.38;;;1.05;;
37288;SDS011;23174;49.462;11.000;2023-11-21T05:32:24;1.73;;;1.20;;
37288;SDS011;23174;49.462;11.000;2023-11-21T05:34:24;1.77;;;1.02;;
37288;SDS011;23174;49.462;11.000;2023-11-21T05:36:26;1.77;;;1.20;;
37288;SDS011;23174;49.462;11.000;2023-11-21T05:38:26;1.73;;;1.00;;
37288;SDS011;23174;49.462;11.000;2023-11-21T05:40:27;2.05;;;1.05;;
37288;SDS011;23174;49.462;11.000;2023-11-21T05:42:29;3.08;;;1.80;;
37288;SDS011;23174;49.462;11.000;2023-11-21T05:44:30;2.58;;;1.30;;
37288;SDS011;23174;49.462;11.000;2023-11-21T05:46:31;1.67;;;1.20;;
37288;SDS011;23174;49.462;11.000;2023-11-21T05:48:31;1.50;;;1.00;;
37288;SDS011;23174;49.462;11.000;2023-11-21T05:50:32;1.75;;;1.08;;
37288;SDS011;23174;49.462;11.000;2023-11-21T05:52:32;2.65;;;1.08;;
37288;SDS011;23174;49.462;11.000;2023-11-21T05:54:33;1.10;;;1.00;;
37288;SDS011;23174;49.462;11.000;2023-11-21T05:56:33;2.65;;;1.02;;
37288;SDS011;23174;49.462;11.000;2023-11-21T05:58:34;5.55;;;1.10;;
37288;SDS011;23174;49.462;11.000;2023-11-21T06:00:35;1.98;;;1.40;;
37288;SDS011;23174;49.462;11.000;2023-11-21T06:02:37;4.13;;;1.52;;
37288;SDS011;23174;49.462;11.000;2023-11-21T06:04:38;2.25;;;1.80;;
37288;SDS011;23174;49.462;11.000;2023-11-21T06:06:39;2.92;;;1.83;;
37288;SDS011;23174;49.462;11.000;2023-11-21T06:08:39;1.58;;;1.20;;
37288;SDS011;23174;49.462;11.000;2023-11-21T06:10:40;1.30;;;1.20;;
37288;SDS011;23174;49.462;11.000;2023-11-21T06:12:40;1.55;;;1.00;;
37288;SDS011;23174;49.462;11.000;2023-11-21T06:14:42;1.65;;;1.10;;
37288;SDS011;23174;49.462;11.000;2023-11-21T06:16:43;1.63;;;0.95;;
37288;SDS011;23174;49.462;11.000;2023-11-21T06:18:45;3.10;;;1.17;;
37288;SDS011;23174;49.462;11.000;2023-11-21T06:20:46;1.95;;;1.20;;
37288;SDS011;23174;49.462;11.000;2023-11-21T06:22:47;2.33;;;1.30;;
37288;SDS011;23174;49.462;11.000;2023-11-21T06:24:48;1.33;;;1.02;;
37288;SDS011;23174;49.462;11.000;2023-11-21T06:26:49;1.38;;;1.00;;
37288;SDS011;23174;49.462;11.000;2023-11-21T06:28:49;5.07;;;1.30;;
37288;SDS011;23174;49.462;11.000;2023-11-21T06:30:51;1.63;;;1.23;;
37288;SDS011;23174;49.462;11.000;2023-11-21T06:32:53;2.03;;;1.30;;
37288;SDS011;23174;49.462;11.000;2023-11-21T06:34:53;1.95;;;1.52;;
37288;SDS011;23174;49.462;11.000;2023-11-21T06:36:54;3.13;;;1.63;;
37288;SDS011;23174;49.462;11.000;2023-11-21T06:39:10;2.00;;;1.38;;
37288;SDS011;23174;49.462;11.000;2023-11-21T06:41:10;2.33;;;1.35;;
37288;SDS011;23174;49.462;11.000;2023-11-21T06:43:11;1.30;;;1.20;;
37288;SDS011;23174;49.462;11.000;2023-11-21T06:45:11;2.50;;;1.38;;
37288;SDS011;23174;49.462;11.000;2023-11-21T06:47:12;1.58;;;1.45;;
37288;SDS011;23174;49.462;11.000;2023-11-21T06:49:12;1.48;;;1.38;;
37288;SDS011;23174;49.462;11.000;2023-11-21T06:51:13;2.60;;;1.42;;
37288;SDS011;23174;49.462;11.000;2023-11-21T06:53:14;1.60;;;1.50;;
37288;SDS011;23174;49.462;11.000;2023-11-21T06:55:14;1.33;;;1.23;;
37288;SDS011;23174;49.462;11.000;2023-11-21T06:57:16;2.38;;;1.73;;
37288;SDS011;23174;49.462;11.000;2023-11-21T06:59:16;2.05;;;1.55;;
37288;SDS011;23174;49.462;11.000;2023-11-21T07:01:17;2.88;;;2.22;;
37288;SDS011;23174;49.462;11.000;2023-11-21T07:03:18;7.85;;;2.60;;
37288;SDS011;23174;49.462;11.000;2023-11-21T07:05:19;3.38;;;2.60;;
37288;SDS011;23174;49.462;11.000;2023-11-21T07:07:21;2.58;;;2.38;;
37288;SDS011;23174;49.462;11.000;2023-11-21T07:09:21;3.72;;;1.90;;
37288;SDS011;23174;49.462;11.000;2023-11-21T07:11:22;2.45;;;1.42;;
37288;SDS011;23174;49.462;11.000;2023-11-21T07:13:22;0.35;;;0.20;;
37288;SDS011;23174;49.462;11.000;2023-11-21T07:15:23;0.77;;;0.38;;
37288;SDS011;23174;49.462;11.000;2023-11-21T07:17:25;0.85;;;0.35;;
37288;SDS011;23174;49.462;11.000;2023-11-21T07:19:26;0.50;;;0.50;;
37288;SDS011;23174;49.462;11.000;2023-11-21T07:21:26;1.00;;;0.50;;
37288;SDS011;23174;49.462;11.000;2023-11-21T07:23:27;0.52;;;0.52;;
37288;SDS011;23174;49.462;11.000;2023-11-21T07:25:27;0.45;;;0.45;;
37288;SDS011;23174;49.462;11.000;2023-11-21T07:27:28;1.38;;;0.40;;
37288;SDS011;23174;49.462;11.000;2023-11-21T07:29:28;0.20;;;0.20;;
37288;SDS011;23174;49.462;11.000;2023-11-21T07:31:29;0.13;;;0.13;;
37288;SDS011;23174;49.462;11.000;2023-11-21T07:33:31;0.50;;;0.50;;
37288;SDS011;23174;49.462;11.000;2023-11-21T07:35:31;0.20;;;0.20;;
37288;SDS011;23174;49.462;11.000;2023-11-21T07:37:32;0.38;;;0.38;;
37288;SDS011;23174;49.462;11.000;2023-11-21T07:39:32;0.00;;;0.00;;
37288;SDS011;23174;49.462;11.000;2023-11-21T07:41:33;0.00;;;0.00;;
37288;SDS011;23174;49.462;11.000;2023-11-21T07:43:34;0.10;;;0.10;;
37288;SDS011;23174;49.462;11.000;2023-11-21T07:45:35;3.83;;;0.60;;
37288;SDS011;23174;49.462;11.000;2023-11-21T07:47:36;0.10;;;0.10;;
37288;SDS011;23174;49.462;11.000;2023-11-21T07:49:36;0.00;;;0.00;;
37288;SDS011;23174;49.462;11.000;2023-11-21T07:51:37;0.03;;;0.03;;
37288;SDS011;23174;49.462;11.000;2023-11-21T07:53:37;0.00;;;0.00;;
37288;SDS011;23174;49.462;11.000;2023-11-21T07:55:38;0.77;;;0.52;;
37288;SDS011;23174;49.462;11.000;2023-11-21T07:57:38;0.30;;;0.30;;
37288;SDS011;23174;49.462;11.000;2023-11-21T07:59:39;1.20;;;0.20;;
37288;SDS011;23174;49.462;11.000;2023-11-21T08:01:40;0.00;;;0.00;;
37288;SDS011;23174;49.462;11.000;2023-11-21T08:03:43;0.17;;;0.17;;
37288;SDS011;23174;49.462;11.000;2023-11-21T08:05:44;3.97;;;0.13;;
37288;SDS011;23174;49.462;11.000;2023-11-21T08:07:44;0.05;;;0.05;;
37288;SDS011;23174;49.462;11.000;2023-11-21T08:09:45;0.00;;;0.00;;
37288;SDS011;23174;49.462;11.000;2023-11-21T08:11:46;0.20;;;0.08;;
37288;SDS011;23174;49.462;11.000;2023-11-21T08:13:47;0.15;;;0.15;;
37288;SDS011;23174;49.462;11.000;2023-11-21T08:15:47;0.20;;;0.20;;
37288;SDS011;23174;49.462;11.000;2023-11-21T08:17:48;0.73;;;0.10;;
37288;SDS011;23174;49.462;11.000;2023-11-21T08:19:48;1.00;;;0.38;;
37288;SDS011;23174;49.462;11.000;2023-11-21T08:21:51;0.10;;;0.10;;
37288;SDS011;23174;49.462;11.000;2023-11-21T08:23:54;0.38;;;0.30;;
37288;SDS011;23174;49.462;11.000;2023-11-21T08:25:55;0.10;;;0.10;;
37288;SDS011;23174;49.462;11.000;2023-11-21T08:27:55;0.10;;;0.10;;
37288;SDS011;23174;49.462;11.000;2023-11-21T08:29:56;0.00;;;0.00;;
37288;SDS011;23174;49.462;11.000;2023-11-21T08:31:57;0.30;;;0.30;;
37288;SDS011;23174;49.462;11.000;2023-11-21T08:33:57;1.67;;;0.73;;
37288;SDS011;23174;49.462;11.000;2023-11-21T08:35:58;1.33;;;0.38;;
37288;SDS011;23174;49.462;11.000;2023-11-21T08:38:02;0.22;;;0.22;;
37288;SDS011;23174;49.462;11.000;2023-11-21T08:40:06;0.03;;;0.03;;
37288;SDS011;23174;49.462;11.000;2023-11-21T08:42:12;0.35;;;0.35;;
37288;SDS011;23174;49.462;11.000;2023-11-21T08:44:16;1.17;;;0.45;;
37288;SDS011;23174;49.462;11.000;2023-11-21T08:46:18;0.30;;;0.20;;
37288;SDS011;23174;49.462;11.000;2023-11-21T08:48:18;0.63;;;0.40;;
37288;SDS011;23174;49.462;11.000;2023-11-21T08:50:19;0.00;;;0.00;;
37288;SDS011;23174;49.462;11.000;2023-11-21T08:52:19;0.85;;;0.55;;
37288;SDS011;23174;49.462;11.000;2023-11-21T08:54:22;0.85;;;0.57;;
37288;SDS011;23174;49.462;11.000;2023-11-21T08:56:23;0.57;;;0.57;;
37288;SDS011;23174;49.462;11.000;2023-11-21T08:58:24;0.00;;;0.00;;
37288;SDS011;23174;49.462;11.000;2023-11-21T09:00:25;0.70;;;0.70;;
37288;SDS011;23174;49.462;11.000;2023-11-21T09:02:25;0.50;;;0.50;;
37288;SDS011;23174;49.462;11.000;2023-11-21T09:04:26;0.70;;;0.70;;
37288;SDS011;23174;49.462;11.000;2023-11-21T09:06:27;0.75;;;0.75;;
37288;SDS011;23174;49.462;11.000;2023-11-21T09:08:27;0.40;;;0.40;;
37288;SDS011;23174;49.462;11.000;2023-11-21T09:10:29;0.13;;;0.13;;
37288;SDS011;23174;49.462;11.000;2023-11-21T09:12:29;0.03;;;0.03;;
37288;SDS011;23174;49.462;11.000;2023-11-21T09:14:32;0.38;;;0.38;;
37288;SDS011;23174;49.462;11.000;2023-11-21T09:16:32;0.25;;;0.25;;
37288;SDS011;23174;49.462;11.000;2023-11-21T09:18:33;0.25;;;0.25;;
37288;SDS011;23174;49.462;11.000;2023-11-21T09:20:34;0.55;;;0.55;;
37288;SDS011;23174;49.462;11.000;2023-11-21T09:22:34;0.15;;;0.15;;
37288;SDS011;23174;49.462;11.000;2023-11-21T09:24:35;1.13;;;0.80;;
37288;SDS011;23174;49.462;11.000;2023-11-21T09:26:35;0.05;;;0.05;;
37288;SDS011;23174;49.462;11.000;2023-11-21T09:28:36;1.63;;;1.17;;
37288;SDS011;23174;49.462;11.000;2023-11-21T09:30:39;0.57;;;0.57;;
37288;SDS011;23174;49.462;11.000;2023-11-21T09:32:39;0.65;;;0.30;;
37288;SDS011;23174;49.462;11.000;2023-11-21T09:34:40;0.20;;;0.20;;
37288;SDS011;23174;49.462;11.000;2023-11-21T09:36:41;3.38;;;0.95;;
37288;SDS011;23174;49.462;11.000;2023-11-21T09:38:45;1.10;;;0.50;;
37288;SDS011;23174;49.462;11.000;2023-11-21T09:40:46;1.00;;;1.00;;
37288;SDS011;23174;49.462;11.000;2023-11-21T09:42:56;0.82;;;0.68;;
37288;SDS011;23174;49.462;11.000;2023-11-21T09:45:05;0.35;;;0.35;;
37288;SDS011;23174;49.462;11.000;2023-11-21T09:47:17;0.00;;;0.00;;
37288;SDS011;23174;49.462;11.000;2023-11-21T09:49:21;0.17;;;0.17;;
37288;SDS011;23174;49.462;11.000;2023-11-21T09:51:27;1.92;;;1.30;;
37288;SDS011;23174;49.462;11.000;2023-11-21T09:53:33;1.27;;;0.80;;
37288;SDS011;23174;49.462;11.000;2023-11-21T09:55:35;0.57;;;0.30;;
37288;SDS011;23174;49.462;11.000;2023-11-21T09:57:36;0.28;;;0.28;;
37288;SDS011;23174;49.462;11.000;2023-11-21T09:59:37;0.38;;;0.38;;
37288;SDS011;23174;49.462;11.000;2023-11-21T10:01:38;2.05;;;0.93;;
37288;SDS011;23174;49.462;11.000;2023-11-21T10:03:40;0.32;;;0.32;;
37288;SDS011;23174;49.462;11.000;2023-11-21T10:05:42;0.93;;;0.68;;
37288;SDS011;23174;49.462;11.000;2023-11-21T10:07:44;0.68;;;0.08;;
37288;SDS011;23174;49.462;11.000;2023-11-21T10:09:45;0.10;;;0.10;;
37288;SDS011;23174;49.462;11.000;2023-11-21T10:11:46;0.93;;;0.93;;
37288;SDS011;23174;49.462;11.000;2023-11-21T10:13:49;0.20;;;0.20;;
37288;SDS011;23174;49.462;11.000;2023-11-21T10:15:52;0.80;;;0.32;;
37288;SDS011;23174;49.462;11.000;2023-11-21T10:17:53;0.68;;;0.68;;
37288;SDS011;23174;49.462;11.000;2023-11-21T10:19:55;0.98;;;0.95;;
37288;SDS011;23174;49.462;11.000;2023-11-21T10:21:56;0.52;;;0.52;;
37288;SDS011;23174;49.462;11.000;2023-11-21T10:23:59;0.20;;;0.20;;
37288;SDS011;23174;49.462;11.000;2023-11-21T10:26:00;1.08;;;0.98;;
37288;SDS011;23174;49.462;11.000;2023-11-21T10:28:03;0.65;;;0.28;;
37288;SDS011;23174;49.462;11.000;2023-11-21T10:30:07;2.28;;;0.77;;
37288;SDS011;23174;49.462;11.000;2023-11-21T10:32:12;0.88;;;0.88;;
37288;SDS011;23174;49.462;11.000;2023-11-21T10:34:13;0.82;;;0.82;;
37288;SDS011;23174;49.462;11.000;2023-11-21T10:36:20;1.55;;;1.45;;
37288;SDS011;23174;49.462;11.000;2023-11-21T10:38:27;0.00;;;0.00;;
37288;SDS011;23174;49.462;11.000;2023-11-21T10:40:30;0.55;;;0.45;;
37288;SDS011;23174;49.462;11.000;2023-11-21T10:42:31;0.32;;;0.22;;
37288;SDS011;23174;49.462;11.000;2023-11-21T10:44:32;0.50;;;0.45;;
37288;SDS011;23174;49.462;11.000;2023-11-21T10:46:34;0.40;;;0.15;;
37288;SDS011;23174;49.462;11.000;2023-11-21T10:48:35;0.70;;;0.52;;
37288;SDS011;23174;49.462;11.000;2023-11-21T10:50:36;0.95;;;0.95;;
37288;SDS011;23174;49.462;11.000;2023-11-21T10:52:37;0.00;;;0.00;;
37288;SDS011;23174;49.462;11.000;2023-11-21T10:54:39;2.70;;;1.70;;
37288;SDS011;23174;49.462;11.000;2023-11-21T10:56:39;6.38;;;1.92;;
37288;SDS011;23174;49.462;11.000;2023-11-21T10:58:43;1.70;;;1.60;;
37288;SDS011;23174;49.462;11.000;2023-11-21T11:00:43;3.55;;;1.75;;
37288;SDS011;23174;49.462;11.000;2023-11-21T11:02:45;1.05;;;1.00;;
37288;SDS011;23174;49.462;11.000;2023-11-21T11:04:50;1.85;;;1.70;;
37288;SDS011;23174;49.462;11.000;2023-11-21T11:06:57;1.13;;;0.95;;
37288;SDS011;23174;49.462;11.000;2023-11-21T11:09:01;1.70;;;1.50;;
37288;SDS011;23174;49.462;11.000;2023-11-21T11:11:02;4.57;;;1.73;;
37288;SDS011;23174;49.462;11.000;2023-11-21T11:13:04;2.90;;;1.38;;
37288;SDS011;23174;49.462;11.000;2023-11-21T11:15:08;1.90;;;1.80;;
37288;SDS011;23174;49.462;11.000;2023-11-21T11:17:11;0.65;;;0.43;;
37288;SDS011;23174;49.462;11.000;2023-11-21T11:19:13;1.85;;;1.30;;
37288;SDS011;23174;49.462;11.000;2023-11-21T11:21:23;2.15;;;1.80;;
37288;SDS011;23174;49.462;11.000;2023-11-21T11:23:49;2.33;;;2.08;;
37288;SDS011;23174;49.462;11.000;2023-11-21T11:28:47;3.40;;;1.77;;
37288;SDS011;23174;49.462;11.000;2023-11-21T11:31:03;4.32;;;2.08;;
37288;SDS011;23174;49.462;11.000;2023-11-21T11:33:33;2.92;;;1.30;;
37288;SDS011;23174;49.462;11.000;2023-11-21T11:37:49;3.80;;;2.20;;
37288;SDS011;23174;49.462;11.000;2023-11-21T11:39:50;3.38;;;1.33;;
37288;SDS011;23174;49.462;11.000;2023-11-21T11:41:51;2.65;;;1.45;;
37288;SDS011;23174;49.462;11.000;2023-11-21T11:43:53;2.85;;;1.30;;
37288;SDS011;23174;49.462;11.000;2023-11-21T11:45:57;1.75;;;0.75;;
37288;SDS011;23174;49.462;11.000;2023-11-21T11:48:05;3.03;;;1.33;;
37288;SDS011;23174;49.462;11.000;2023-11-21T11:50:09;1.23;;;1.15;;
37288;SDS011;23174;49.462;11.000;2023-11-21T11:54:37;1.20;;;1.10;;
37288;SDS011;23174;49.462;11.000;2023-11-21T11:56:38;2.03;;;1.20;;
37288;SDS011;23174;49.462;11.000;2023-11-21T11:58:40;1.67;;;1.40;;
37288;SDS011;23174;49.462;11.000;2023-11-21T12:00:41;3.38;;;1.35;;
37288;SDS011;23174;49.462;11.000;2023-11-21T12:02:44;2.58;;;1.52;;
37288;SDS011;23174;49.462;11.000;2023-11-21T12:04:45;3.65;;;1.50;;
37288;SDS011;23174;49.462;11.000;2023-11-21T12:06:45;1.92;;;1.25;;
37288;SDS011;23174;49.462;11.000;2023-11-21T12:08:46;0.93;;;0.85;;